sensor_id;sensor_type;location;lat;lon;timestamp;pressure;altitude;pressure_sealevel;temperature
64175;BMP280;50469;50.438;-119.202;2023-09-12T00:01:05;97021.25;;;23.62
64175;BMP280;50469;50.438;-119.202;2023-09-12T00:03:34;97024.97;;;23.48
64175;BMP280;50469;50.438;-119.202;2023-09-12T00:06:03;97026.66;;;23.46
64175;BMP280;50469;50.438;-119.202;2023-09-12T00:08:32;97026.47;;;23.55
64175;BMP280;50469;50.438;-119.202;2023-09-12T00:11:05;97028.69;;;23.51
64175;BMP280;50469;50.438;-119.202;2023-09-12T00:13:33;97040.34;;;23.46
64175;BMP280;50469;50.438;-119.202;2023-09-12T00:16:02;97038.38;;;23.41
64175;BMP280;50469;50.438;-119.202;2023-09-12T00:18:33;97045.28;;;23.42
64175;BMP280;50469;50.438;-119.202;2023-09-12T00:21:03;97041.56;;;23.28
64175;BMP280;50469;50.438;-119.202;2023-09-12T00:23:32;97044.56;;;23.35
64175;BMP280;50469;50.438;-119.202;2023-09-12T00:26:00;97047.75;;;23.34
64175;BMP280;50469;50.438;-119.202;2023-09-12T00:28:31;97044.53;;;23.24
64175;BMP280;50469;50.438;-119.202;2023-09-12T00:30:59;97052.00;;;23.29
64175;BMP280;50469;50.438;-119.202;2023-09-12T00:33:28;97049.97;;;23.24
64175;BMP280;50469;50.438;-119.202;2023-09-12T00:35:59;97059.16;;;23.10
64175;BMP280;50469;50.438;-119.202;2023-09-12T00:38:27;97055.38;;;23.02
64175;BMP280;50469;50.438;-119.202;2023-09-12T00:40:57;97042.47;;;23.02
64175;BMP280;50469;50.438;-119.202;2023-09-12T00:43:26;97041.00;;;23.01
64175;BMP280;50469;50.438;-119.202;2023-09-12T00:48:24;97032.84;;;23.18
64175;BMP280;50469;50.438;-119.202;2023-09-12T00:50:57;97028.44;;;23.54
64175;BMP280;50469;50.438;-119.202;2023-09-12T00:53:26;97029.44;;;23.68
64175;BMP280;50469;50.438;-119.202;2023-09-12T00:55:57;97021.00;;;23.66
64175;BMP280;50469;50.438;-119.202;2023-09-12T00:58:27;97016.75;;;23.65
64175;BMP280;50469;50.438;-119.202;2023-09-12T01:00:56;97007.84;;;23.70
64175;BMP280;50469;50.438;-119.202;2023-09-12T01:03:25;96997.88;;;23.67
64175;BMP280;50469;50.438;-119.202;2023-09-12T01:05:58;96991.91;;;23.63
64175;BMP280;50469;50.438;-119.202;2023-09-12T01:08:27;96994.66;;;23.69
64175;BMP280;50469;50.438;-119.202;2023-09-12T01:10:57;96994.63;;;23.35
64175;BMP280;50469;50.438;-119.202;2023-09-12T01:13:26;96994.09;;;23.20
64175;BMP280;50469;50.438;-119.202;2023-09-12T01:15:54;96985.69;;;23.29
64175;BMP280;50469;50.438;-119.202;2023-09-12T01:18:23;96987.94;;;23.36
64175;BMP280;50469;50.438;-119.202;2023-09-12T01:29:39;96981.50;;;23.61
64175;BMP280;50469;50.438;-119.202;2023-09-12T01:32:09;96985.72;;;23.62
64175;BMP280;50469;50.438;-119.202;2023-09-12T01:34:38;96982.44;;;23.42
64175;BMP280;50469;50.438;-119.202;2023-09-12T01:37:06;96982.69;;;23.21
64175;BMP280;50469;50.438;-119.202;2023-09-12T01:39:34;96983.41;;;23.05
64175;BMP280;50469;50.438;-119.202;2023-09-12T01:42:05;96982.91;;;22.95
64175;BMP280;50469;50.438;-119.202;2023-09-12T01:44:35;96985.38;;;22.93
64175;BMP280;50469;50.438;-119.202;2023-09-12T01:47:06;96976.91;;;22.80
64175;BMP280;50469;50.438;-119.202;2023-09-12T01:49:35;96984.84;;;22.83
64175;BMP280;50469;50.438;-119.202;2023-09-12T01:52:05;96989.31;;;22.92
64175;BMP280;50469;50.438;-119.202;2023-09-12T01:54:34;96984.63;;;22.98
64175;BMP280;50469;50.438;-119.202;2023-09-12T01:57:05;96990.03;;;22.76
64175;BMP280;50469;50.438;-119.202;2023-09-12T01:59:34;96997.41;;;22.70
64175;BMP280;50469;50.438;-119.202;2023-09-12T02:02:02;96986.22;;;22.56
64175;BMP280;50469;50.438;-119.202;2023-09-12T02:04:31;96993.19;;;22.63
64175;BMP280;50469;50.438;-119.202;2023-09-12T02:07:02;96997.44;;;22.64
64175;BMP280;50469;50.438;-119.202;2023-09-12T02:09:30;97002.38;;;22.60
64175;BMP280;50469;50.438;-119.202;2023-09-12T02:11:59;97004.28;;;22.54
64175;BMP280;50469;50.438;-119.202;2023-09-12T02:14:27;97003.84;;;22.61
64175;BMP280;50469;50.438;-119.202;2023-09-12T02:16:58;97008.53;;;22.55
64175;BMP280;50469;50.438;-119.202;2023-09-12T02:19:27;97007.50;;;22.47
64175;BMP280;50469;50.438;-119.202;2023-09-12T02:21:55;97004.88;;;22.26
64175;BMP280;50469;50.438;-119.202;2023-09-12T02:24:23;97001.03;;;22.44
64175;BMP280;50469;50.438;-119.202;2023-09-12T02:26:52;97003.28;;;22.08
64175;BMP280;50469;50.438;-119.202;2023-09-12T02:29:20;97000.09;;;22.10
64175;BMP280;50469;50.438;-119.202;2023-09-12T02:31:49;96999.81;;;22.08
64175;BMP280;50469;50.438;-119.202;2023-09-12T02:34:17;97002.50;;;22.02
64175;BMP280;50469;50.438;-119.202;2023-09-12T02:36:45;97004.91;;;21.95
64175;BMP280;50469;50.438;-119.202;2023-09-12T02:39:13;97005.13;;;21.91
64175;BMP280;50469;50.438;-119.202;2023-09-12T02:41:41;97005.97;;;21.71
64175;BMP280;50469;50.438;-119.202;2023-09-12T02:44:10;97004.06;;;21.77
64175;BMP280;50469;50.438;-119.202;2023-09-12T02:46:38;97015.34;;;21.70
64175;BMP280;50469;50.438;-119.202;2023-09-12T02:49:06;97011.59;;;21.62
64175;BMP280;50469;50.438;-119.202;2023-09-12T02:51:39;97010.78;;;21.56
64175;BMP280;50469;50.438;-119.202;2023-09-12T02:54:07;97013.28;;;21.59
64175;BMP280;50469;50.438;-119.202;2023-09-12T02:56:37;97004.16;;;21.36
64175;BMP280;50469;50.438;-119.202;2023-09-12T02:59:05;97008.19;;;21.41
64175;BMP280;50469;50.438;-119.202;2023-09-12T03:01:33;97013.41;;;21.45
64175;BMP280;50469;50.438;-119.202;2023-09-12T03:04:01;97020.38;;;21.25
64175;BMP280;50469;50.438;-119.202;2023-09-12T03:06:30;97021.28;;;21.16
64175;BMP280;50469;50.438;-119.202;2023-09-12T03:08:58;97014.22;;;21.04
64175;BMP280;50469;50.438;-119.202;2023-09-12T03:11:27;97025.13;;;21.04
64175;BMP280;50469;50.438;-119.202;2023-09-12T03:13:55;97023.28;;;20.96
64175;BMP280;50469;50.438;-119.202;2023-09-12T03:16:23;97026.94;;;20.92
64175;BMP280;50469;50.438;-119.202;2023-09-12T03:18:54;97032.13;;;20.90
64175;BMP280;50469;50.438;-119.202;2023-09-12T03:21:22;97026.53;;;20.79
64175;BMP280;50469;50.438;-119.202;2023-09-12T03:23:50;97022.22;;;20.73
64175;BMP280;50469;50.438;-119.202;2023-09-12T03:26:19;97031.97;;;20.79
64175;BMP280;50469;50.438;-119.202;2023-09-12T03:28:49;97034.81;;;20.70
64175;BMP280;50469;50.438;-119.202;2023-09-12T03:31:18;97031.47;;;20.60
64175;BMP280;50469;50.438;-119.202;2023-09-12T03:33:47;97029.09;;;20.68
64175;BMP280;50469;50.438;-119.202;2023-09-12T03:36:16;97036.91;;;20.60
64175;BMP280;50469;50.438;-119.202;2023-09-12T03:38:44;97034.59;;;20.53
64175;BMP280;50469;50.438;-119.202;2023-09-12T03:41:14;97034.59;;;20.53
64175;BMP280;50469;50.438;-119.202;2023-09-12T03:43:42;97036.19;;;20.45
64175;BMP280;50469;50.438;-119.202;2023-09-12T03:46:10;97050.94;;;20.53
64175;BMP280;50469;50.438;-119.202;2023-09-12T03:48:38;97056.28;;;20.33
64175;BMP280;50469;50.438;-119.202;2023-09-12T03:51:07;97053.56;;;20.18
64175;BMP280;50469;50.438;-119.202;2023-09-12T03:53:36;97047.84;;;20.16
64175;BMP280;50469;50.438;-119.202;2023-09-12T03:56:04;97057.25;;;20.15
64175;BMP280;50469;50.438;-119.202;2023-09-12T03:58:32;97059.47;;;20.31
64175;BMP280;50469;50.438;-119.202;2023-09-12T04:01:04;97060.59;;;20.25
64175;BMP280;50469;50.438;-119.202;2023-09-12T04:03:32;97056.09;;;20.36
64175;BMP280;50469;50.438;-119.202;2023-09-12T04:06:01;97066.03;;;20.25
64175;BMP280;50469;50.438;-119.202;2023-09-12T04:08:30;97052.91;;;20.08
64175;BMP280;50469;50.438;-119.202;2023-09-12T04:10:58;97063.72;;;20.03
64175;BMP280;50469;50.438;-119.202;2023-09-12T04:13:26;97071.19;;;20.08
64175;BMP280;50469;50.438;-119.202;2023-09-12T04:15:55;97063.44;;;20.01
64175;BMP280;50469;50.438;-119.202;2023-09-12T04:18:24;97074.41;;;19.91
64175;BMP280;50469;50.438;-119.202;2023-09-12T04:20:52;97067.94;;;19.89
64175;BMP280;50469;50.438;-119.202;2023-09-12T04:23:21;97068.09;;;19.85
64175;BMP280;50469;50.438;-119.202;2023-09-12T04:25:49;97071.38;;;19.89
64175;BMP280;50469;50.438;-119.202;2023-09-12T04:28:18;97068.19;;;19.76
64175;BMP280;50469;50.438;-119.202;2023-09-12T04:30:48;97064.63;;;19.70
64175;BMP280;50469;50.438;-119.202;2023-09-12T04:33:17;97069.59;;;19.71
64175;BMP280;50469;50.438;-119.202;2023-09-12T04:35:45;97075.03;;;19.71
64175;BMP280;50469;50.438;-119.202;2023-09-12T04:38:14;97067.97;;;19.50
64175;BMP280;50469;50.438;-119.202;2023-09-12T04:40:42;97073.38;;;19.50
64175;BMP280;50469;50.438;-119.202;2023-09-12T04:43:11;97082.00;;;19.48
64175;BMP280;50469;50.438;-119.202;2023-09-12T04:45:39;97074.94;;;19.42
64175;BMP280;50469;50.438;-119.202;2023-09-12T04:48:08;97082.47;;;19.23
64175;BMP280;50469;50.438;-119.202;2023-09-12T04:50:41;97077.56;;;19.12
64175;BMP280;50469;50.438;-119.202;2023-09-12T04:53:09;97072.09;;;18.97
64175;BMP280;50469;50.438;-119.202;2023-09-12T04:55:38;97086.78;;;18.39
64175;BMP280;50469;50.438;-119.202;2023-09-12T04:58:06;97089.94;;;18.28
64175;BMP280;50469;50.438;-119.202;2023-09-12T05:00:35;97083.31;;;18.39
64175;BMP280;50469;50.438;-119.202;2023-09-12T05:03:03;97093.28;;;18.14
64175;BMP280;50469;50.438;-119.202;2023-09-12T05:05:34;97092.00;;;17.82
64175;BMP280;50469;50.438;-119.202;2023-09-12T05:08:03;97083.25;;;17.78
64175;BMP280;50469;50.438;-119.202;2023-09-12T05:10:31;97091.53;;;17.83
64175;BMP280;50469;50.438;-119.202;2023-09-12T05:12:59;97101.91;;;17.76
64175;BMP280;50469;50.438;-119.202;2023-09-12T05:15:30;97105.81;;;17.75
64175;BMP280;50469;50.438;-119.202;2023-09-12T05:17:59;97102.66;;;17.86
64175;BMP280;50469;50.438;-119.202;2023-09-12T05:20:27;97101.78;;;17.79
64175;BMP280;50469;50.438;-119.202;2023-09-12T05:22:55;97113.06;;;17.69
64175;BMP280;50469;50.438;-119.202;2023-09-12T05:25:23;97102.34;;;17.56
64175;BMP280;50469;50.438;-119.202;2023-09-12T05:27:52;97109.09;;;17.70
64175;BMP280;50469;50.438;-119.202;2023-09-12T05:30:20;97114.81;;;17.44
64175;BMP280;50469;50.438;-119.202;2023-09-12T05:32:48;97110.59;;;17.34
64175;BMP280;50469;50.438;-119.202;2023-09-12T05:35:17;97123.03;;;17.22
64175;BMP280;50469;50.438;-119.202;2023-09-12T05:37:49;97103.31;;;17.12
64175;BMP280;50469;50.438;-119.202;2023-09-12T05:40:18;97118.66;;;17.16
64175;BMP280;50469;50.438;-119.202;2023-09-12T05:42:47;97113.88;;;17.29
64175;BMP280;50469;50.438;-119.202;2023-09-12T05:45:15;97111.28;;;17.16
64175;BMP280;50469;50.438;-119.202;2023-09-12T05:47:48;97110.13;;;17.35
64175;BMP280;50469;50.438;-119.202;2023-09-12T05:50:17;97108.22;;;17.64
64175;BMP280;50469;50.438;-119.202;2023-09-12T05:52:45;97108.84;;;17.58
64175;BMP280;50469;50.438;-119.202;2023-09-12T05:55:17;97115.22;;;17.24
64175;BMP280;50469;50.438;-119.202;2023-09-12T05:57:45;97107.97;;;17.12
64175;BMP280;50469;50.438;-119.202;2023-09-12T06:00:14;97111.44;;;17.12
64175;BMP280;50469;50.438;-119.202;2023-09-12T06:02:42;97116.28;;;17.18
64175;BMP280;50469;50.438;-119.202;2023-09-12T06:05:11;97109.59;;;16.69
64175;BMP280;50469;50.438;-119.202;2023-09-12T06:07:39;97109.06;;;16.30
64175;BMP280;50469;50.438;-119.202;2023-09-12T06:10:08;97113.66;;;16.20
64175;BMP280;50469;50.438;-119.202;2023-09-12T06:12:37;97114.19;;;16.06
64175;BMP280;50469;50.438;-119.202;2023-09-12T06:15:05;97112.66;;;16.27
64175;BMP280;50469;50.438;-119.202;2023-09-12T06:17:34;97110.34;;;16.16
64175;BMP280;50469;50.438;-119.202;2023-09-12T06:20:02;97115.34;;;16.27
64175;BMP280;50469;50.438;-119.202;2023-09-12T06:22:30;97112.09;;;16.10
64175;BMP280;50469;50.438;-119.202;2023-09-12T06:24:59;97112.44;;;16.12
64175;BMP280;50469;50.438;-119.202;2023-09-12T06:27:28;97117.25;;;16.17
64175;BMP280;50469;50.438;-119.202;2023-09-12T06:29:56;97113.56;;;15.89
64175;BMP280;50469;50.438;-119.202;2023-09-12T06:32:25;97111.84;;;15.83
64175;BMP280;50469;50.438;-119.202;2023-09-12T06:34:53;97121.91;;;15.82
64175;BMP280;50469;50.438;-119.202;2023-09-12T06:37:22;97113.19;;;15.78
64175;BMP280;50469;50.438;-119.202;2023-09-12T06:39:51;97111.25;;;15.66
64175;BMP280;50469;50.438;-119.202;2023-09-12T06:42:19;97110.91;;;16.11
64175;BMP280;50469;50.438;-119.202;2023-09-12T06:44:50;97119.94;;;15.95
64175;BMP280;50469;50.438;-119.202;2023-09-12T06:47:20;97115.66;;;16.07
64175;BMP280;50469;50.438;-119.202;2023-09-12T06:49:48;97111.06;;;15.95
64175;BMP280;50469;50.438;-119.202;2023-09-12T06:52:22;97116.34;;;15.98
64175;BMP280;50469;50.438;-119.202;2023-09-12T06:54:50;97112.66;;;16.05
64175;BMP280;50469;50.438;-119.202;2023-09-12T06:57:18;97107.94;;;16.40
64175;BMP280;50469;50.438;-119.202;2023-09-12T06:59:47;97107.78;;;16.13
64175;BMP280;50469;50.438;-119.202;2023-09-12T07:02:15;97108.19;;;15.89
64175;BMP280;50469;50.438;-119.202;2023-09-12T07:04:44;97117.34;;;15.92
64175;BMP280;50469;50.438;-119.202;2023-09-12T07:07:12;97117.34;;;16.14
64175;BMP280;50469;50.438;-119.202;2023-09-12T07:09:40;97110.84;;;15.67
64175;BMP280;50469;50.438;-119.202;2023-09-12T07:12:08;97105.81;;;15.44
64175;BMP280;50469;50.438;-119.202;2023-09-12T07:14:38;97108.78;;;15.59
64175;BMP280;50469;50.438;-119.202;2023-09-12T07:17:08;97110.03;;;15.19
64175;BMP280;50469;50.438;-119.202;2023-09-12T07:19:36;97108.69;;;15.97
64175;BMP280;50469;50.438;-119.202;2023-09-12T07:22:05;97113.47;;;15.45
64175;BMP280;50469;50.438;-119.202;2023-09-12T07:24:33;97111.38;;;15.75
64175;BMP280;50469;50.438;-119.202;2023-09-12T07:27:01;97117.44;;;15.88
64175;BMP280;50469;50.438;-119.202;2023-09-12T07:29:30;97112.97;;;15.72
64175;BMP280;50469;50.438;-119.202;2023-09-12T07:31:59;97111.69;;;15.77
64175;BMP280;50469;50.438;-119.202;2023-09-12T07:34:28;97109.59;;;15.46
64175;BMP280;50469;50.438;-119.202;2023-09-12T07:36:56;97114.66;;;15.44
64175;BMP280;50469;50.438;-119.202;2023-09-12T07:39:24;97117.47;;;15.15
64175;BMP280;50469;50.438;-119.202;2023-09-12T07:41:53;97117.16;;;15.00
64175;BMP280;50469;50.438;-119.202;2023-09-12T07:44:21;97112.91;;;15.38
64175;BMP280;50469;50.438;-119.202;2023-09-12T07:46:52;97124.47;;;15.25
64175;BMP280;50469;50.438;-119.202;2023-09-12T07:49:21;97118.31;;;15.38
64175;BMP280;50469;50.438;-119.202;2023-09-12T07:51:49;97120.03;;;15.32
64175;BMP280;50469;50.438;-119.202;2023-09-12T07:54:17;97117.06;;;15.17
64175;BMP280;50469;50.438;-119.202;2023-09-12T07:56:45;97119.44;;;15.15
64175;BMP280;50469;50.438;-119.202;2023-09-12T07:59:14;97117.16;;;15.00
64175;BMP280;50469;50.438;-119.202;2023-09-12T08:01:43;97125.03;;;15.07
64175;BMP280;50469;50.438;-119.202;2023-09-12T08:04:11;97128.72;;;15.01
64175;BMP280;50469;50.438;-119.202;2023-09-12T08:06:40;97126.09;;;14.97
64175;BMP280;50469;50.438;-119.202;2023-09-12T08:09:24;97128.38;;;14.99
64175;BMP280;50469;50.438;-119.202;2023-09-12T08:11:53;97120.59;;;14.75
64175;BMP280;50469;50.438;-119.202;2023-09-12T08:14:22;97130.44;;;14.53
64175;BMP280;50469;50.438;-119.202;2023-09-12T08:16:50;97129.84;;;14.32
64175;BMP280;50469;50.438;-119.202;2023-09-12T08:19:19;97131.31;;;14.21
64175;BMP280;50469;50.438;-119.202;2023-09-12T08:21:48;97130.16;;;14.05
64175;BMP280;50469;50.438;-119.202;2023-09-12T08:24:16;97130.00;;;13.96
64175;BMP280;50469;50.438;-119.202;2023-09-12T08:26:44;97128.91;;;13.93
64175;BMP280;50469;50.438;-119.202;2023-09-12T08:29:16;97138.31;;;13.85
64175;BMP280;50469;50.438;-119.202;2023-09-12T08:31:44;97136.09;;;13.84
64175;BMP280;50469;50.438;-119.202;2023-09-12T08:34:13;97135.75;;;13.82
64175;BMP280;50469;50.438;-119.202;2023-09-12T08:36:41;97130.22;;;13.73
64175;BMP280;50469;50.438;-119.202;2023-09-12T08:39:22;97142.06;;;13.91
64175;BMP280;50469;50.438;-119.202;2023-09-12T08:41:52;97132.88;;;13.89
64175;BMP280;50469;50.438;-119.202;2023-09-12T08:44:21;97138.28;;;14.34
64175;BMP280;50469;50.438;-119.202;2023-09-12T08:46:50;97142.47;;;13.90
64175;BMP280;50469;50.438;-119.202;2023-09-12T08:49:19;97131.03;;;13.69
64175;BMP280;50469;50.438;-119.202;2023-09-12T08:51:47;97133.06;;;13.82
64175;BMP280;50469;50.438;-119.202;2023-09-12T08:54:16;97136.84;;;13.84
64175;BMP280;50469;50.438;-119.202;2023-09-12T08:56:44;97136.59;;;13.79
64175;BMP280;50469;50.438;-119.202;2023-09-12T08:59:13;97137.84;;;13.74
64175;BMP280;50469;50.438;-119.202;2023-09-12T09:01:42;97141.47;;;13.84
64175;BMP280;50469;50.438;-119.202;2023-09-12T09:04:11;97141.00;;;13.85
64175;BMP280;50469;50.438;-119.202;2023-09-12T09:06:40;97137.91;;;13.38
64175;BMP280;50469;50.438;-119.202;2023-09-12T09:09:09;97152.78;;;13.26
64175;BMP280;50469;50.438;-119.202;2023-09-12T09:11:38;97147.56;;;13.35
64175;BMP280;50469;50.438;-119.202;2023-09-12T09:14:06;97140.16;;;13.23
64175;BMP280;50469;50.438;-119.202;2023-09-12T09:16:34;97148.94;;;13.27
64175;BMP280;50469;50.438;-119.202;2023-09-12T09:19:04;97150.25;;;13.35
64175;BMP280;50469;50.438;-119.202;2023-09-12T09:21:33;97141.81;;;13.17
64175;BMP280;50469;50.438;-119.202;2023-09-12T09:24:07;97149.25;;;13.09
64175;BMP280;50469;50.438;-119.202;2023-09-12T09:26:42;97149.13;;;13.16
64175;BMP280;50469;50.438;-119.202;2023-09-12T09:29:15;97146.69;;;13.06
64175;BMP280;50469;50.438;-119.202;2023-09-12T09:31:45;97151.56;;;12.91
64175;BMP280;50469;50.438;-119.202;2023-09-12T09:34:19;97149.41;;;12.22
64175;BMP280;50469;50.438;-119.202;2023-09-12T09:36:48;97155.22;;;12.61
64175;BMP280;50469;50.438;-119.202;2023-09-12T09:39:18;97143.88;;;12.53
64175;BMP280;50469;50.438;-119.202;2023-09-12T09:41:52;97154.50;;;12.36
64175;BMP280;50469;50.438;-119.202;2023-09-12T09:44:25;97152.00;;;12.49
64175;BMP280;50469;50.438;-119.202;2023-09-12T09:47:00;97154.66;;;12.29
64175;BMP280;50469;50.438;-119.202;2023-09-12T09:49:33;97152.03;;;11.79
64175;BMP280;50469;50.438;-119.202;2023-09-12T09:52:05;97140.31;;;11.42
64175;BMP280;50469;50.438;-119.202;2023-09-12T09:54:34;97154.28;;;11.80
64175;BMP280;50469;50.438;-119.202;2023-09-12T09:57:04;97153.78;;;12.12
64175;BMP280;50469;50.438;-119.202;2023-09-12T09:59:33;97146.06;;;12.14
64175;BMP280;50469;50.438;-119.202;2023-09-12T10:02:03;97142.34;;;12.52
64175;BMP280;50469;50.438;-119.202;2023-09-12T10:04:34;97146.53;;;12.09
64175;BMP280;50469;50.438;-119.202;2023-09-12T10:07:06;97145.28;;;11.94
64175;BMP280;50469;50.438;-119.202;2023-09-12T10:09:37;97150.31;;;12.16
64175;BMP280;50469;50.438;-119.202;2023-09-12T10:12:09;97159.72;;;12.24
64175;BMP280;50469;50.438;-119.202;2023-09-12T10:14:40;97157.66;;;12.31
64175;BMP280;50469;50.438;-119.202;2023-09-12T10:17:11;97152.00;;;12.26
64175;BMP280;50469;50.438;-119.202;2023-09-12T10:19:52;97153.94;;;11.51
64175;BMP280;50469;50.438;-119.202;2023-09-12T10:22:29;97153.75;;;11.89
64175;BMP280;50469;50.438;-119.202;2023-09-12T10:25:00;97153.09;;;12.08
64175;BMP280;50469;50.438;-119.202;2023-09-12T10:27:31;97155.47;;;12.26
64175;BMP280;50469;50.438;-119.202;2023-09-12T10:30:02;97157.56;;;12.15
64175;BMP280;50469;50.438;-119.202;2023-09-12T10:32:30;97159.19;;;11.85
64175;BMP280;50469;50.438;-119.202;2023-09-12T10:35:00;97155.78;;;11.81
64175;BMP280;50469;50.438;-119.202;2023-09-12T10:37:31;97164.91;;;12.11
64175;BMP280;50469;50.438;-119.202;2023-09-12T10:40:05;97160.63;;;11.90
64175;BMP280;50469;50.438;-119.202;2023-09-12T10:42:35;97160.69;;;11.63
64175;BMP280;50469;50.438;-119.202;2023-09-12T10:45:05;97149.19;;;11.62
64175;BMP280;50469;50.438;-119.202;2023-09-12T10:47:38;97147.00;;;12.04
64175;BMP280;50469;50.438;-119.202;2023-09-12T10:50:07;97160.56;;;11.70
64175;BMP280;50469;50.438;-119.202;2023-09-12T10:52:39;97156.56;;;11.55
64175;BMP280;50469;50.438;-119.202;2023-09-12T10:55:07;97152.53;;;11.70
64175;BMP280;50469;50.438;-119.202;2023-09-12T10:58:00;97153.72;;;11.65
64175;BMP280;50469;50.438;-119.202;2023-09-12T11:00:31;97161.94;;;11.55
64175;BMP280;50469;50.438;-119.202;2023-09-12T11:05:57;97153.88;;;11.82
64175;BMP280;50469;50.438;-119.202;2023-09-12T11:08:28;97156.41;;;11.38
64175;BMP280;50469;50.438;-119.202;2023-09-12T11:11:18;97159.66;;;10.92
64175;BMP280;50469;50.438;-119.202;2023-09-12T11:14:02;97168.50;;;11.19
64175;BMP280;50469;50.438;-119.202;2023-09-12T11:16:31;97160.66;;;11.05
64175;BMP280;50469;50.438;-119.202;2023-09-12T11:19:12;97162.28;;;10.99
64175;BMP280;50469;50.438;-119.202;2023-09-12T11:21:46;97159.72;;;11.19
64175;BMP280;50469;50.438;-119.202;2023-09-12T11:24:15;97168.41;;;10.96
64175;BMP280;50469;50.438;-119.202;2023-09-12T11:27:01;97162.75;;;11.21
64175;BMP280;50469;50.438;-119.202;2023-09-12T11:29:30;97166.94;;;11.53
64175;BMP280;50469;50.438;-119.202;2023-09-12T11:32:03;97176.06;;;11.32
64175;BMP280;50469;50.438;-119.202;2023-09-12T11:34:52;97163.78;;;11.34
64175;BMP280;50469;50.438;-119.202;2023-09-12T11:37:27;97168.59;;;10.81
64175;BMP280;50469;50.438;-119.202;2023-09-12T11:39:55;97168.00;;;11.32
64175;BMP280;50469;50.438;-119.202;2023-09-12T11:42:25;97174.22;;;10.08
64175;BMP280;50469;50.438;-119.202;2023-09-12T11:44:55;97174.78;;;10.33
64175;BMP280;50469;50.438;-119.202;2023-09-12T11:47:25;97167.22;;;10.66
64175;BMP280;50469;50.438;-119.202;2023-09-12T11:49:53;97171.34;;;10.36
64175;BMP280;50469;50.438;-119.202;2023-09-12T11:52:21;97168.06;;;10.59
64175;BMP280;50469;50.438;-119.202;2023-09-12T11:54:53;97173.34;;;10.25
64175;BMP280;50469;50.438;-119.202;2023-09-12T11:57:23;97170.34;;;10.16
64175;BMP280;50469;50.438;-119.202;2023-09-12T11:59:51;97166.06;;;10.26
64175;BMP280;50469;50.438;-119.202;2023-09-12T12:02:21;97168.94;;;10.49
64175;BMP280;50469;50.438;-119.202;2023-09-12T12:04:50;97175.41;;;10.52
64175;BMP280;50469;50.438;-119.202;2023-09-12T12:07:19;97160.16;;;10.83
64175;BMP280;50469;50.438;-119.202;2023-09-12T12:09:48;97175.09;;;10.39
64175;BMP280;50469;50.438;-119.202;2023-09-12T12:12:16;97160.88;;;10.04
64175;BMP280;50469;50.438;-119.202;2023-09-12T12:14:44;97161.44;;;9.85
64175;BMP280;50469;50.438;-119.202;2023-09-12T12:17:13;97161.38;;;10.37
64175;BMP280;50469;50.438;-119.202;2023-09-12T12:19:45;97168.84;;;10.56
64175;BMP280;50469;50.438;-119.202;2023-09-12T12:22:14;97170.22;;;10.34
64175;BMP280;50469;50.438;-119.202;2023-09-12T12:24:47;97164.84;;;10.75
64175;BMP280;50469;50.438;-119.202;2023-09-12T12:27:15;97168.88;;;10.91
64175;BMP280;50469;50.438;-119.202;2023-09-12T12:29:45;97173.50;;;10.49
64175;BMP280;50469;50.438;-119.202;2023-09-12T12:32:17;97174.13;;;10.22
64175;BMP280;50469;50.438;-119.202;2023-09-12T12:34:50;97174.81;;;10.30
64175;BMP280;50469;50.438;-119.202;2023-09-12T12:37:39;97174.56;;;10.55
64175;BMP280;50469;50.438;-119.202;2023-09-12T12:40:12;97179.91;;;10.58
64175;BMP280;50469;50.438;-119.202;2023-09-12T12:42:41;97178.75;;;10.97
64175;BMP280;50469;50.438;-119.202;2023-09-12T12:45:23;97172.88;;;10.72
64175;BMP280;50469;50.438;-119.202;2023-09-12T12:47:58;97177.59;;;10.15
64175;BMP280;50469;50.438;-119.202;2023-09-12T12:50:27;97181.19;;;9.94
64175;BMP280;50469;50.438;-119.202;2023-09-12T12:52:55;97174.25;;;10.53
64175;BMP280;50469;50.438;-119.202;2023-09-12T12:55:26;97172.19;;;10.26
64175;BMP280;50469;50.438;-119.202;2023-09-12T12:57:54;97165.91;;;9.99
64175;BMP280;50469;50.438;-119.202;2023-09-12T13:00:23;97172.72;;;10.03
64175;BMP280;50469;50.438;-119.202;2023-09-12T13:02:53;97167.81;;;9.94
64175;BMP280;50469;50.438;-119.202;2023-09-12T13:05:25;97165.91;;;9.95
64175;BMP280;50469;50.438;-119.202;2023-09-12T13:07:54;97164.38;;;9.94
64175;BMP280;50469;50.438;-119.202;2023-09-12T13:10:23;97170.47;;;9.98
64175;BMP280;50469;50.438;-119.202;2023-09-12T13:12:52;97169.03;;;9.86
64175;BMP280;50469;50.438;-119.202;2023-09-12T13:15:21;97166.69;;;9.95
64175;BMP280;50469;50.438;-119.202;2023-09-12T13:17:50;97175.19;;;9.83
64175;BMP280;50469;50.438;-119.202;2023-09-12T13:20:18;97170.06;;;10.03
64175;BMP280;50469;50.438;-119.202;2023-09-12T13:22:49;97173.09;;;9.42
64175;BMP280;50469;50.438;-119.202;2023-09-12T13:25:17;97172.97;;;9.67
64175;BMP280;50469;50.438;-119.202;2023-09-12T13:27:46;97179.53;;;10.11
64175;BMP280;50469;50.438;-119.202;2023-09-12T13:30:14;97166.47;;;10.24
64175;BMP280;50469;50.438;-119.202;2023-09-12T13:32:43;97172.25;;;10.19
64175;BMP280;50469;50.438;-119.202;2023-09-12T13:35:12;97176.91;;;10.08
64175;BMP280;50469;50.438;-119.202;2023-09-12T13:37:43;97162.88;;;10.42
64175;BMP280;50469;50.438;-119.202;2023-09-12T13:40:11;97171.28;;;10.44
64175;BMP280;50469;50.438;-119.202;2023-09-12T13:42:39;97166.72;;;10.37
64175;BMP280;50469;50.438;-119.202;2023-09-12T13:45:10;97165.16;;;10.43
64175;BMP280;50469;50.438;-119.202;2023-09-12T13:47:38;97167.47;;;10.37
64175;BMP280;50469;50.438;-119.202;2023-09-12T13:50:08;97171.41;;;10.26
64175;BMP280;50469;50.438;-119.202;2023-09-12T13:52:36;97171.38;;;10.29
64175;BMP280;50469;50.438;-119.202;2023-09-12T13:55:06;97165.94;;;10.44
64175;BMP280;50469;50.438;-119.202;2023-09-12T13:57:34;97175.63;;;10.65
64175;BMP280;50469;50.438;-119.202;2023-09-12T14:00:17;97188.06;;;10.48
64175;BMP280;50469;50.438;-119.202;2023-09-12T14:02:55;97181.81;;;10.62